sensor_id;sensor_type;location;lat;lon;timestamp;temperature;humidity
16479;DHT22;8350;52.316;10.530;2022-09-20T00:01:05;8.70;99.90
16479;DHT22;8350;52.316;10.530;2022-09-20T00:03:33;8.80;99.90
16479;DHT22;8350;52.316;10.530;2022-09-20T00:06:01;8.70;99.90
16479;DHT22;8350;52.316;10.530;2022-09-20T00:08:28;8.70;99.90
16479;DHT22;8350;52.316;10.530;2022-09-20T00:10:58;8.70;99.90
16479;DHT22;8350;52.316;10.530;2022-09-20T00:13:29;8.70;99.90
16479;DHT22;8350;52.316;10.530;2022-09-20T00:15:56;8.70;99.90
16479;DHT22;8350;52.316;10.530;2022-09-20T00:18:23;8.70;99.90
16479;DHT22;8350;52.316;10.530;2022-09-20T00:20:51;8.70;99.90
16479;DHT22;8350;52.316;10.530;2022-09-20T00:23:18;8.70;99.90
16479;DHT22;8350;52.316;10.530;2022-09-20T00:25:53;8.60;99.90
16479;DHT22;8350;52.316;10.530;2022-09-20T00:28:20;8.60;99.90
16479;DHT22;8350;52.316;10.530;2022-09-20T00:30:48;8.60;99.90
16479;DHT22;8350;52.316;10.530;2022-09-20T00:33:16;8.60;99.90
16479;DHT22;8350;52.316;10.530;2022-09-20T00:35:43;8.60;99.90
16479;DHT22;8350;52.316;10.530;2022-09-20T00:38:09;8.50;99.90
16479;DHT22;8350;52.316;10.530;2022-09-20T00:40:38;8.50;99.90
16479;DHT22;8350;52.316;10.530;2022-09-20T00:43:05;8.50;99.90
16479;DHT22;8350;52.316;10.530;2022-09-20T00:45:35;8.50;99.90
16479;DHT22;8350;52.316;10.530;2022-09-20T00:48:08;8.50;99.90
16479;DHT22;8350;52.316;10.530;2022-09-20T00:50:39;8.40;99.90
16479;DHT22;8350;52.316;10.530;2022-09-20T00:53:11;8.40;99.90
16479;DHT22;8350;52.316;10.530;2022-09-20T00:55:42;8.40;99.90
16479;DHT22;8350;52.316;10.530;2022-09-20T00:58:11;8.40;99.90
16479;DHT22;8350;52.316;10.530;2022-09-20T01:00:39;8.40;99.90
16479;DHT22;8350;52.316;10.530;2022-09-20T01:03:10;8.40;99.90
16479;DHT22;8350;52.316;10.530;2022-09-20T01:05:38;8.40;99.90
16479;DHT22;8350;52.316;10.530;2022-09-20T01:08:07;8.50;99.90
16479;DHT22;8350;52.316;10.530;2022-09-20T01:10:35;8.50;99.90
16479;DHT22;8350;52.316;10.530;2022-09-20T01:13:02;8.50;99.90
16479;DHT22;8350;52.316;10.530;2022-09-20T01:15:31;8.60;99.90
16479;DHT22;8350;52.316;10.530;2022-09-20T01:18:00;8.60;99.90
16479;DHT22;8350;52.316;10.530;2022-09-20T01:20:31;8.60;99.90
16479;DHT22;8350;52.316;10.530;2022-09-20T01:23:31;8.70;99.90
16479;DHT22;8350;52.316;10.530;2022-09-20T01:29:29;8.80;99.90
16479;DHT22;8350;52.316;10.530;2022-09-20T01:32:00;8.90;99.90
16479;DHT22;8350;52.316;10.530;2022-09-20T01:34:32;8.90;99.90
16479;DHT22;8350;52.316;10.530;2022-09-20T01:37:04;9.00;99.90
16479;DHT22;8350;52.316;10.530;2022-09-20T01:39:38;9.00;99.90
16479;DHT22;8350;52.316;10.530;2022-09-20T01:42:09;9.10;99.90
16479;DHT22;8350;52.316;10.530;2022-09-20T01:44:47;9.10;99.90
16479;DHT22;8350;52.316;10.530;2022-09-20T01:47:30;9.10;99.90
16479;DHT22;8350;52.316;10.530;2022-09-20T01:50:06;9.10;99.90
16479;DHT22;8350;52.316;10.530;2022-09-20T01:55:42;9.10;99.90
16479;DHT22;8350;52.316;10.530;2022-09-20T02:01:33;9.20;99.90
16479;DHT22;8350;52.316;10.530;2022-09-20T02:04:28;9.20;99.90
16479;DHT22;8350;52.316;10.530;2022-09-20T02:07:11;9.20;99.90
16479;DHT22;8350;52.316;10.530;2022-09-20T02:10:11;9.30;99.90
16479;DHT22;8350;52.316;10.530;2022-09-20T02:12:53;9.30;99.90
16479;DHT22;8350;52.316;10.530;2022-09-20T02:15:35;9.30;99.90
16479;DHT22;8350;52.316;10.530;2022-09-20T02:18:15;9.40;99.90
16479;DHT22;8350;52.316;10.530;2022-09-20T02:20:51;9.40;99.90
16479;DHT22;8350;52.316;10.530;2022-09-20T02:23:26;9.40;99.90
16479;DHT22;8350;52.316;10.530;2022-09-20T02:26:08;9.40;99.90
16479;DHT22;8350;52.316;10.530;2022-09-20T02:28:51;9.40;99.90
16479;DHT22;8350;52.316;10.530;2022-09-20T02:31:30;9.40;99.90
16479;DHT22;8350;52.316;10.530;2022-09-20T02:37:18;9.40;99.90
16479;DHT22;8350;52.316;10.530;2022-09-20T02:39:59;9.40;99.90
16479;DHT22;8350;52.316;10.530;2022-09-20T02:42:34;9.40;99.90
16479;DHT22;8350;52.316;10.530;2022-09-20T02:45:08;9.50;99.90
16479;DHT22;8350;52.316;10.530;2022-09-20T02:47:37;9.50;99.90
16479;DHT22;8350;52.316;10.530;2022-09-20T02:50:16;9.50;99.90
16479;DHT22;8350;52.316;10.530;2022-09-20T02:53:00;9.50;99.90
16479;DHT22;8350;52.316;10.530;2022-09-20T02:55:39;9.50;99.90
16479;DHT22;8350;52.316;10.530;2022-09-20T02:58:19;9.50;99.90
16479;DHT22;8350;52.316;10.530;2022-09-20T03:00:53;9.50;99.90
16479;DHT22;8350;52.316;10.530;2022-09-20T03:03:33;9.50;99.90
16479;DHT22;8350;52.316;10.530;2022-09-20T03:06:06;9.50;99.90
16479;DHT22;8350;52.316;10.530;2022-09-20T03:08:48;9.50;99.90
16479;DHT22;8350;52.316;10.530;2022-09-20T03:11:25;9.50;99.90
16479;DHT22;8350;52.316;10.530;2022-09-20T03:14:08;9.50;99.90
16479;DHT22;8350;52.316;10.530;2022-09-20T03:16:50;9.50;99.90
16479;DHT22;8350;52.316;10.530;2022-09-20T03:19:30;9.50;99.90
16479;DHT22;8350;52.316;10.530;2022-09-20T03:22:04;9.60;99.90
16479;DHT22;8350;52.316;10.530;2022-09-20T03:24:42;9.60;99.90
16479;DHT22;8350;52.316;10.530;2022-09-20T03:27:19;9.60;99.90
16479;DHT22;8350;52.316;10.530;2022-09-20T03:30:00;9.60;99.90
16479;DHT22;8350;52.316;10.530;2022-09-20T03:32:40;9.50;99.90
16479;DHT22;8350;52.316;10.530;2022-09-20T03:35:25;9.60;99.90
16479;DHT22;8350;52.316;10.530;2022-09-20T03:38:07;9.50;99.90
16479;DHT22;8350;52.316;10.530;2022-09-20T03:41:12;9.50;99.90
16479;DHT22;8350;52.316;10.530;2022-09-20T03:44:00;9.50;99.90
16479;DHT22;8350;52.316;10.530;2022-09-20T03:46:41;9.40;99.90
16479;DHT22;8350;52.316;10.530;2022-09-20T03:49:39;9.50;99.90
16479;DHT22;8350;52.316;10.530;2022-09-20T03:52:24;9.40;99.90
16479;DHT22;8350;52.316;10.530;2022-09-20T03:55:30;9.50;99.90
16479;DHT22;8350;52.316;10.530;2022-09-20T03:58:20;9.40;99.90
16479;DHT22;8350;52.316;10.530;2022-09-20T04:01:04;9.50;99.90
16479;DHT22;8350;52.316;10.530;2022-09-20T04:03:41;9.40;99.90
16479;DHT22;8350;52.316;10.530;2022-09-20T04:09:38;9.40;99.90
16479;DHT22;8350;52.316;10.530;2022-09-20T04:12:21;9.50;99.90
16479;DHT22;8350;52.316;10.530;2022-09-20T04:15:00;9.50;99.90
16479;DHT22;8350;52.316;10.530;2022-09-20T04:17:38;9.50;99.90
16479;DHT22;8350;52.316;10.530;2022-09-20T04:20:15;9.50;99.90
16479;DHT22;8350;52.316;10.530;2022-09-20T04:22:46;9.50;99.90
16479;DHT22;8350;52.316;10.530;2022-09-20T04:25:20;9.40;99.90
16479;DHT22;8350;52.316;10.530;2022-09-20T04:27:51;9.40;99.90
16479;DHT22;8350;52.316;10.530;2022-09-20T04:30:23;9.40;99.90
16479;DHT22;8350;52.316;10.530;2022-09-20T04:32:59;9.40;99.90
16479;DHT22;8350;52.316;10.530;2022-09-20T04:35:37;9.50;99.90
16479;DHT22;8350;52.316;10.530;2022-09-20T04:38:25;9.40;99.90
16479;DHT22;8350;52.316;10.530;2022-09-20T04:41:15;9.50;99.90
16479;DHT22;8350;52.316;10.530;2022-09-20T04:47:14;9.50;99.90
16479;DHT22;8350;52.316;10.530;2022-09-20T04:50:18;9.50;99.90
16479;DHT22;8350;52.316;10.530;2022-09-20T04:53:20;9.50;99.90
16479;DHT22;8350;52.316;10.530;2022-09-20T04:55:53;9.50;99.90
16479;DHT22;8350;52.316;10.530;2022-09-20T04:58:48;9.50;99.90
16479;DHT22;8350;52.316;10.530;2022-09-20T05:04:51;9.50;99.90
16479;DHT22;8350;52.316;10.530;2022-09-20T05:13:46;9.50;99.90
16479;DHT22;8350;52.316;10.530;2022-09-20T05:16:19;9.50;99.90
16479;DHT22;8350;52.316;10.530;2022-09-20T05:19:23;9.40;99.90
16479;DHT22;8350;52.316;10.530;2022-09-20T05:22:18;9.40;99.90
16479;DHT22;8350;52.316;10.530;2022-09-20T05:25:17;9.40;99.90
16479;DHT22;8350;52.316;10.530;2022-09-20T05:27:51;9.40;99.90
16479;DHT22;8350;52.316;10.530;2022-09-20T05:30:25;9.40;99.90
16479;DHT22;8350;52.316;10.530;2022-09-20T05:33:04;9.50;99.90
16479;DHT22;8350;52.316;10.530;2022-09-20T05:35:41;9.50;99.90
16479;DHT22;8350;52.316;10.530;2022-09-20T05:38:17;9.50;99.90
16479;DHT22;8350;52.316;10.530;2022-09-20T05:41:02;9.50;99.90
16479;DHT22;8350;52.316;10.530;2022-09-20T05:43:32;9.50;99.90
16479;DHT22;8350;52.316;10.530;2022-09-20T05:46:09;9.50;99.90
16479;DHT22;8350;52.316;10.530;2022-09-20T05:48:51;9.60;99.90
16479;DHT22;8350;52.316;10.530;2022-09-20T05:51:35;9.60;99.90
16479;DHT22;8350;52.316;10.530;2022-09-20T05:57:15;9.70;99.90
16479;DHT22;8350;52.316;10.530;2022-09-20T05:59:55;9.70;99.90
16479;DHT22;8350;52.316;10.530;2022-09-20T06:02:32;9.70;99.90
16479;DHT22;8350;52.316;10.530;2022-09-20T06:05:03;9.70;99.90
16479;DHT22;8350;52.316;10.530;2022-09-20T06:07:49;9.80;99.90
16479;DHT22;8350;52.316;10.530;2022-09-20T06:10:30;9.80;99.90
16479;DHT22;8350;52.316;10.530;2022-09-20T06:13:04;9.80;99.90
16479;DHT22;8350;52.316;10.530;2022-09-20T06:15:44;9.80;99.90
16479;DHT22;8350;52.316;10.530;2022-09-20T06:18:21;9.70;99.90
16479;DHT22;8350;52.316;10.530;2022-09-20T06:20:56;9.70;99.90
16479;DHT22;8350;52.316;10.530;2022-09-20T06:23:30;9.70;99.90
16479;DHT22;8350;52.316;10.530;2022-09-20T06:26:01;9.70;99.90
16479;DHT22;8350;52.316;10.530;2022-09-20T06:28:32;9.80;99.90
16479;DHT22;8350;52.316;10.530;2022-09-20T06:31:00;9.80;99.90
16479;DHT22;8350;52.316;10.530;2022-09-20T06:33:39;9.80;99.90
16479;DHT22;8350;52.316;10.530;2022-09-20T06:36:11;9.80;99.90
16479;DHT22;8350;52.316;10.530;2022-09-20T06:39:04;9.80;99.90
16479;DHT22;8350;52.316;10.530;2022-09-20T06:41:53;9.70;99.90
16479;DHT22;8350;52.316;10.530;2022-09-20T06:44:20;9.80;99.90
16479;DHT22;8350;52.316;10.530;2022-09-20T06:46:47;9.80;99.90
16479;DHT22;8350;52.316;10.530;2022-09-20T06:49:18;9.90;99.90
16479;DHT22;8350;52.316;10.530;2022-09-20T06:51:45;9.80;99.90
16479;DHT22;8350;52.316;10.530;2022-09-20T06:54:17;9.80;99.90
16479;DHT22;8350;52.316;10.530;2022-09-20T06:56:44;9.90;99.90
16479;DHT22;8350;52.316;10.530;2022-09-20T06:59:14;9.90;99.90
16479;DHT22;8350;52.316;10.530;2022-09-20T07:01:41;9.90;99.90
16479;DHT22;8350;52.316;10.530;2022-09-20T07:04:08;10.00;99.90
16479;DHT22;8350;52.316;10.530;2022-09-20T07:06:35;10.00;99.90
16479;DHT22;8350;52.316;10.530;2022-09-20T07:09:03;10.00;99.90
16479;DHT22;8350;52.316;10.530;2022-09-20T07:11:30;10.10;99.90
16479;DHT22;8350;52.316;10.530;2022-09-20T07:13:59;10.20;99.90
16479;DHT22;8350;52.316;10.530;2022-09-20T07:16:28;10.20;99.90
16479;DHT22;8350;52.316;10.530;2022-09-20T07:18:55;10.20;99.90
16479;DHT22;8350;52.316;10.530;2022-09-20T07:21:22;10.30;99.90
16479;DHT22;8350;52.316;10.530;2022-09-20T07:23:49;10.30;99.90
16479;DHT22;8350;52.316;10.530;2022-09-20T07:26:21;10.40;99.90
16479;DHT22;8350;52.316;10.530;2022-09-20T07:28:48;10.30;99.90
16479;DHT22;8350;52.316;10.530;2022-09-20T07:31:16;10.30;99.90
16479;DHT22;8350;52.316;10.530;2022-09-20T07:33:50;10.30;99.90
16479;DHT22;8350;52.316;10.530;2022-09-20T07:36:18;10.40;99.90
16479;DHT22;8350;52.316;10.530;2022-09-20T07:38:47;10.40;99.90
16479;DHT22;8350;52.316;10.530;2022-09-20T07:41:15;10.30;99.90
16479;DHT22;8350;52.316;10.530;2022-09-20T07:43:44;10.40;99.90
16479;DHT22;8350;52.316;10.530;2022-09-20T07:46:11;10.40;99.90
16479;DHT22;8350;52.316;10.530;2022-09-20T07:48:39;10.40;99.90
16479;DHT22;8350;52.316;10.530;2022-09-20T07:51:09;10.50;99.90
16479;DHT22;8350;52.316;10.530;2022-09-20T07:53:37;10.60;99.90
16479;DHT22;8350;52.316;10.530;2022-09-20T07:56:06;10.50;99.90
16479;DHT22;8350;52.316;10.530;2022-09-20T07:58:34;10.50;99.90
16479;DHT22;8350;52.316;10.530;2022-09-20T08:01:03;10.60;99.90
16479;DHT22;8350;52.316;10.530;2022-09-20T08:03:31;10.60;99.90
16479;DHT22;8350;52.316;10.530;2022-09-20T08:05:59;10.70;99.90
16479;DHT22;8350;52.316;10.530;2022-09-20T08:08:31;10.70;99.90
16479;DHT22;8350;52.316;10.530;2022-09-20T08:11:02;10.80;99.90
16479;DHT22;8350;52.316;10.530;2022-09-20T08:13:31;11.00;99.90
16479;DHT22;8350;52.316;10.530;2022-09-20T08:16:05;11.10;99.90
16479;DHT22;8350;52.316;10.530;2022-09-20T08:18:33;11.10;99.90
16479;DHT22;8350;52.316;10.530;2022-09-20T08:21:02;11.20;99.90
16479;DHT22;8350;52.316;10.530;2022-09-20T08:23:34;11.20;99.90
16479;DHT22;8350;52.316;10.530;2022-09-20T08:26:01;11.30;99.90
16479;DHT22;8350;52.316;10.530;2022-09-20T08:28:28;11.30;99.90
16479;DHT22;8350;52.316;10.530;2022-09-20T08:31:00;11.30;99.90
16479;DHT22;8350;52.316;10.530;2022-09-20T08:33:27;11.40;99.90
16479;DHT22;8350;52.316;10.530;2022-09-20T08:35:54;11.70;99.90
16479;DHT22;8350;52.316;10.530;2022-09-20T08:38:21;11.70;99.90
16479;DHT22;8350;52.316;10.530;2022-09-20T08:40:54;11.70;99.90
16479;DHT22;8350;52.316;10.530;2022-09-20T08:43:26;11.70;99.90
16479;DHT22;8350;52.316;10.530;2022-09-20T08:45:55;11.60;99.90
16479;DHT22;8350;52.316;10.530;2022-09-20T08:48:28;11.70;99.90
16479;DHT22;8350;52.316;10.530;2022-09-20T08:50:56;11.90;99.90
16479;DHT22;8350;52.316;10.530;2022-09-20T08:53:24;11.90;99.90
16479;DHT22;8350;52.316;10.530;2022-09-20T08:55:55;11.80;99.90
16479;DHT22;8350;52.316;10.530;2022-09-20T08:58:24;11.80;99.90
16479;DHT22;8350;52.316;10.530;2022-09-20T09:00:52;12.00;99.90
16479;DHT22;8350;52.316;10.530;2022-09-20T09:03:22;12.00;99.90
16479;DHT22;8350;52.316;10.530;2022-09-20T09:05:50;12.10;99.90
16479;DHT22;8350;52.316;10.530;2022-09-20T09:08:19;12.10;99.90
16479;DHT22;8350;52.316;10.530;2022-09-20T09:10:50;12.30;99.90
16479;DHT22;8350;52.316;10.530;2022-09-20T09:13:24;12.20;99.90
16479;DHT22;8350;52.316;10.530;2022-09-20T09:15:54;12.20;99.90
16479;DHT22;8350;52.316;10.530;2022-09-20T09:18:30;12.30;99.90
16479;DHT22;8350;52.316;10.530;2022-09-20T09:20:57;12.50;99.90
16479;DHT22;8350;52.316;10.530;2022-09-20T09:23:29;12.60;99.90
16479;DHT22;8350;52.316;10.530;2022-09-20T09:26:02;12.70;99.90
16479;DHT22;8350;52.316;10.530;2022-09-20T09:28:31;12.80;99.90
16479;DHT22;8350;52.316;10.530;2022-09-20T09:31:12;12.80;99.90
16479;DHT22;8350;52.316;10.530;2022-09-20T09:33:42;12.80;99.90
16479;DHT22;8350;52.316;10.530;2022-09-20T09:36:13;12.80;99.90
16479;DHT22;8350;52.316;10.530;2022-09-20T09:38:42;12.90;99.90
16479;DHT22;8350;52.316;10.530;2022-09-20T09:41:21;12.80;99.90
16479;DHT22;8350;52.316;10.530;2022-09-20T09:43:58;12.70;99.90
16479;DHT22;8350;52.316;10.530;2022-09-20T09:46:30;13.10;99.90
16479;DHT22;8350;52.316;10.530;2022-09-20T09:49:07;13.30;99.90
16479;DHT22;8350;52.316;10.530;2022-09-20T09:51:34;13.30;99.90
16479;DHT22;8350;52.316;10.530;2022-09-20T09:54:03;13.20;99.90
16479;DHT22;8350;52.316;10.530;2022-09-20T09:56:51;13.30;99.90
16479;DHT22;8350;52.316;10.530;2022-09-20T10:00:00;13.30;99.90
16479;DHT22;8350;52.316;10.530;2022-09-20T10:02:52;13.50;99.90
16479;DHT22;8350;52.316;10.530;2022-09-20T10:05:26;13.80;99.90
16479;DHT22;8350;52.316;10.530;2022-09-20T10:08:05;14.00;99.90
16479;DHT22;8350;52.316;10.530;2022-09-20T10:10:45;14.50;99.90
16479;DHT22;8350;52.316;10.530;2022-09-20T10:13:21;15.00;99.90
16479;DHT22;8350;52.316;10.530;2022-09-20T10:15:57;14.50;99.90
16479;DHT22;8350;52.316;10.530;2022-09-20T10:18:33;14.20;99.90
16479;DHT22;8350;52.316;10.530;2022-09-20T10:21:14;14.10;99.90
16479;DHT22;8350;52.316;10.530;2022-09-20T10:24:00;14.30;99.90
16479;DHT22;8350;52.316;10.530;2022-09-20T10:29:34;14.80;99.90
16479;DHT22;8350;52.316;10.530;2022-09-20T10:32:17;14.90;99.90
16479;DHT22;8350;52.316;10.530;2022-09-20T10:35:08;15.10;99.90
16479;DHT22;8350;52.316;10.530;2022-09-20T10:37:49;15.30;99.90
16479;DHT22;8350;52.316;10.530;2022-09-20T10:40:25;15.80;99.90
16479;DHT22;8350;52.316;10.530;2022-09-20T10:43:27;16.30;99.90
16479;DHT22;8350;52.316;10.530;2022-09-20T10:46:04;16.10;1.00
16479;DHT22;8350;52.316;10.530;2022-09-20T10:48:40;15.90;1.00
16479;DHT22;8350;52.316;10.530;2022-09-20T10:51:12;15.80;1.00
16479;DHT22;8350;52.316;10.530;2022-09-20T10:53:47;15.60;1.00
16479;DHT22;8350;52.316;10.530;2022-09-20T10:56:24;15.70;1.00
16479;DHT22;8350;52.316;10.530;2022-09-20T10:59:19;15.90;1.00
16479;DHT22;8350;52.316;10.530;2022-09-20T11:01:57;16.00;1.00
16479;DHT22;8350;52.316;10.530;2022-09-20T11:04:48;15.50;1.00
16479;DHT22;8350;52.316;10.530;2022-09-20T11:07:20;16.00;1.00
16479;DHT22;8350;52.316;10.530;2022-09-20T11:09:56;16.60;1.00
16479;DHT22;8350;52.316;10.530;2022-09-20T11:12:26;16.60;1.00
16479;DHT22;8350;52.316;10.530;2022-09-20T11:14:59;16.80;1.00
16479;DHT22;8350;52.316;10.530;2022-09-20T11:17:31;16.50;1.00
16479;DHT22;8350;52.316;10.530;2022-09-20T11:20:06;16.30;1.00
16479;DHT22;8350;52.316;10.530;2022-09-20T11:22:43;16.40;1.00
16479;DHT22;8350;52.316;10.530;2022-09-20T11:25:15;16.80;1.00
16479;DHT22;8350;52.316;10.530;2022-09-20T11:27:45;17.20;1.00
16479;DHT22;8350;52.316;10.530;2022-09-20T11:30:15;16.80;1.00
16479;DHT22;8350;52.316;10.530;2022-09-20T11:32:48;16.80;1.00
16479;DHT22;8350;52.316;10.530;2022-09-20T11:35:26;17.00;1.00
16479;DHT22;8350;52.316;10.530;2022-09-20T11:38:02;17.30;1.00
16479;DHT22;8350;52.316;10.530;2022-09-20T11:40:32;17.10;1.00
16479;DHT22;8350;52.316;10.530;2022-09-20T11:43:03;17.10;99.90
16479;DHT22;8350;52.316;10.530;2022-09-20T11:45:32;17.10;1.00
16479;DHT22;8350;52.316;10.530;2022-09-20T11:48:05;17.50;1.00
16479;DHT22;8350;52.316;10.530;2022-09-20T11:56:48;17.40;1.00
16479;DHT22;8350;52.316;10.530;2022-09-20T11:59:26;17.20;1.00
16479;DHT22;8350;52.316;10.530;2022-09-20T12:01:55;17.30;1.00
16479;DHT22;8350;52.316;10.530;2022-09-20T12:04:26;16.20;1.00
16479;DHT22;8350;52.316;10.530;2022-09-20T12:07:01;15.80;1.00
16479;DHT22;8350;52.316;10.530;2022-09-20T12:09:30;15.90;1.00
16479;DHT22;8350;52.316;10.530;2022-09-20T12:11:58;15.80;1.00
16479;DHT22;8350;52.316;10.530;2022-09-20T12:14:27;15.40;1.00
16479;DHT22;8350;52.316;10.530;2022-09-20T12:16:57;15.40;1.00
16479;DHT22;8350;52.316;10.530;2022-09-20T12:19:38;15.30;1.00
16479;DHT22;8350;52.316;10.530;2022-09-20T12:22:25;15.40;1.00
16479;DHT22;8350;52.316;10.530;2022-09-20T12:25:32;15.20;1.00
16479;DHT22;8350;52.316;10.530;2022-09-20T12:28:00;15.60;1.00
16479;DHT22;8350;52.316;10.530;2022-09-20T12:30:27;15.70;1.00
16479;DHT22;8350;52.316;10.530;2022-09-20T12:32:57;16.00;1.00
16479;DHT22;8350;52.316;10.530;2022-09-20T12:38:50;16.40;1.00
16479;DHT22;8350;52.316;10.530;2022-09-20T12:41:19;16.70;1.00
16479;DHT22;8350;52.316;10.530;2022-09-20T12:44:00;16.90;1.00
16479;DHT22;8350;52.316;10.530;2022-09-20T12:46:38;17.30;1.00
16479;DHT22;8350;52.316;10.530;2022-09-20T12:49:21;17.40;1.00
16479;DHT22;8350;52.316;10.530;2022-09-20T12:52:24;17.20;1.00
16479;DHT22;8350;52.316;10.530;2022-09-20T12:55:12;17.00;1.00
16479;DHT22;8350;52.316;10.530;2022-09-20T12:57:52;17.10;1.00
16479;DHT22;8350;52.316;10.530;2022-09-20T13:00:30;17.30;1.00
16479;DHT22;8350;52.316;10.530;2022-09-20T13:03:00;17.40;1.00
16479;DHT22;8350;52.316;10.530;2022-09-20T13:05:35;17.40;1.00
16479;DHT22;8350;52.316;10.530;2022-09-20T13:08:13;17.70;1.00
16479;DHT22;8350;52.316;10.530;2022-09-20T13:10:47;17.70;1.00
16479;DHT22;8350;52.316;10.530;2022-09-20T13:13:26;17.90;1.00
16479;DHT22;8350;52.316;10.530;2022-09-20T13:15:55;17.90;1.00
16479;DHT22;8350;52.316;10.530;2022-09-20T13:18:24;17.90;1.00
16479;DHT22;8350;52.316;10.530;2022-09-20T13:20:53;18.10;1.00
16479;DHT22;8350;52.316;10.530;2022-09-20T13:23:24;18.00;1.00
16479;DHT22;8350;52.316;10.530;2022-09-20T13:25:54;17.70;1.00
16479;DHT22;8350;52.316;10.530;2022-09-20T13:28:33;17.70;99.90
16479;DHT22;8350;52.316;10.530;2022-09-20T13:31:28;17.60;99.90
16479;DHT22;8350;52.316;10.530;2022-09-20T13:34:11;17.60;1.00
16479;DHT22;8350;52.316;10.530;2022-09-20T13:36:38;17.60;1.00
16479;DHT22;8350;52.316;10.530;2022-09-20T13:39:06;17.70;1.00
16479;DHT22;8350;52.316;10.530;2022-09-20T13:41:35;18.00;1.00
16479;DHT22;8350;52.316;10.530;2022-09-20T13:44:02;17.80;1.00
16479;DHT22;8350;52.316;10.530;2022-09-20T13:46:31;17.40;99.90
16479;DHT22;8350;52.316;10.530;2022-09-20T13:49:11;17.70;1.00
16479;DHT22;8350;52.316;10.530;2022-09-20T13:51:38;18.00;1.00
16479;DHT22;8350;52.316;10.530;2022-09-20T13:54:23;18.00;99.90
16479;DHT22;8350;52.316;10.530;2022-09-20T13:56:54;18.10;1.00
16479;DHT22;8350;52.316;10.530;2022-09-20T13:59:22;18.10;1.00
16479;DHT22;8350;52.316;10.530;2022-09-20T14:01:50;18.10;99.90
16479;DHT22;8350;52.316;10.530;2022-09-20T14:04:21;18.00;99.90
16479;DHT22;8350;52.316;10.530;2022-09-20T14:06:49;18.00;99.90
16479;DHT22;8350;52.316;10.530;2022-09-20T14:09:22;18.00;99.90
16479;DHT22;8350;52.316;10.530;2022-09-20T14:11:53;17.40;99.90
16479;DHT22;8350;52.316;10.530;2022-09-20T14:14:22;17.20;1.00
16479;DHT22;8350;52.316;10.530;2022-09-20T14:16:50;17.10;1.00
16479;DHT22;8350;52.316;10.530;2022-09-20T14:19:26;17.00;1.00
16479;DHT22;8350;52.316;10.530;2022-09-20T14:21:56;17.00;1.00
16479;DHT22;8350;52.316;10.530;2022-09-20T14:24:27;16.70;1.00
16479;DHT22;8350;52.316;10.530;2022-09-20T14:27:12;16.80;1.00
16479;DHT22;8350;52.316;10.530;2022-09-20T14:29:42;16.60;1.00
16479;DHT22;8350;52.316;10.530;2022-09-20T14:32:17;16.50;1.00
16479;DHT22;8350;52.316;10.530;2022-09-20T14:34:55;16.30;1.00
16479;DHT22;8350;52.316;10.530;2022-09-20T14:37:25;15.50;1.00
16479;DHT22;8350;52.316;10.530;2022-09-20T14:39:54;15.10;1.00
16479;DHT22;8350;52.316;10.530;2022-09-20T14:42:28;14.60;1.00
16479;DHT22;8350;52.316;10.530;2022-09-20T14:44:56;14.50;1.00
16479;DHT22;8350;52.316;10.530;2022-09-20T14:47:25;14.60;1.00
16479;DHT22;8350;52.316;10.530;2022-09-20T14:49:53;14.90;1.00
16479;DHT22;8350;52.316;10.530;2022-09-20T14:52:34;15.00;1.00
16479;DHT22;8350;52.316;10.530;2022-09-20T14:55:14;14.80;1.00
16479;DHT22;8350;52.316;10.530;2022-09-20T14:57:44;14.70;1.00
16479;DHT22;8350;52.316;10.530;2022-09-20T15:00:12;14.80;1.00
16479;DHT22;8350;52.316;10.530;2022-09-20T15:02:41;14.90;1.00
16479;DHT22;8350;52.316;10.530;2022-09-20T15:05:16;15.10;1.00
16479;DHT22;8350;52.316;10.530;2022-09-20T15:07:45;15.20;1.00
16479;DHT22;8350;52.316;10.530;2022-09-20T15:10:14;15.30;1.00
16479;DHT22;8350;52.316;10.530;2022-09-20T15:12:43;15.50;1.00
16479;DHT22;8350;52.316;10.530;2022-09-20T15:15:11;15.60;1.00
16479;DHT22;8350;52.316;10.530;2022-09-20T15:17:40;15.50;1.00
16479;DHT22;8350;52.316;10.530;2022-09-20T15:20:13;15.30;1.00
16479;DHT22;8350;52.316;10.530;2022-09-20T15:22:41;15.30;1.00
16479;DHT22;8350;52.316;10.530;2022-09-20T15:25:12;15.10;1.00
16479;DHT22;8350;52.316;10.530;2022-09-20T15:27:45;14.90;1.00
16479;DHT22;8350;52.316;10.530;2022-09-20T15:30:14;14.80;1.00
16479;DHT22;8350;52.316;10.530;2022-09-20T15:32:42;14.60;1.00
16479;DHT22;8350;52.316;10.530;2022-09-20T15:35:09;14.50;59.60
16479;DHT22;8350;52.316;10.530;2022-09-20T15:37:36;14.20;91.80
16479;DHT22;8350;52.316;10.530;2022-09-20T15:40:04;14.00;99.90
16479;DHT22;8350;52.316;10.530;2022-09-20T15:42:32;13.80;99.90
16479;DHT22;8350;52.316;10.530;2022-09-20T15:45:05;13.50;99.90
16479;DHT22;8350;52.316;10.530;2022-09-20T15:47:34;13.30;99.90
16479;DHT22;8350;52.316;10.530;2022-09-20T15:50:01;13.00;99.90
16479;DHT22;8350;52.316;10.530;2022-09-20T15:52:32;12.90;99.90
16479;DHT22;8350;52.316;10.530;2022-09-20T15:54:59;12.90;99.90
16479;DHT22;8350;52.316;10.530;2022-09-20T15:57:28;13.10;99.90
16479;DHT22;8350;52.316;10.530;2022-09-20T15:59:55;13.10;99.90
16479;DHT22;8350;52.316;10.530;2022-09-20T16:02:25;13.40;99.90
16479;DHT22;8350;52.316;10.530;2022-09-20T16:04:53;13.40;99.90
16479;DHT22;8350;52.316;10.530;2022-09-20T16:07:21;13.50;99.90
16479;DHT22;8350;52.316;10.530;2022-09-20T16:09:51;13.60;99.90
16479;DHT22;8350;52.316;10.530;2022-09-20T16:12:20;13.70;99.90
16479;DHT22;8350;52.316;10.530;2022-09-20T16:14:47;13.70;99.90
16479;DHT22;8350;52.316;10.530;2022-09-20T16:17:14;13.70;99.90
16479;DHT22;8350;52.316;10.530;2022-09-20T16:19:43;13.80;99.90
16479;DHT22;8350;52.316;10.530;2022-09-20T16:22:10;13.60;99.90
16479;DHT22;8350;52.316;10.530;2022-09-20T16:24:38;13.60;99.90
16479;DHT22;8350;52.316;10.530;2022-09-20T16:27:06;13.50;99.90
16479;DHT22;8350;52.316;10.530;2022-09-20T16:29:34;13.50;99.90
16479;DHT22;8350;52.316;10.530;2022-09-20T16:32:01;13.50;99.90
16479;DHT22;8350;52.316;10.530;2022-09-20T16:34:32;13.40;99.90
16479;DHT22;8350;52.316;10.530;2022-09-20T16:37:03;13.40;99.90
16479;DHT22;8350;52.316;10.530;2022-09-20T16:39:31;13.40;99.90
16479;DHT22;8350;52.316;10.530;2022-09-20T16:42:00;13.40;99.90
16479;DHT22;8350;52.316;10.530;2022-09-20T16:44:30;13.40;99.90
16479;DHT22;8350;52.316;10.530;2022-09-20T16:46:57;13.40;99.90
16479;DHT22;8350;52.316;10.530;2022-09-20T16:49:24;13.30;99.90
16479;DHT22;8350;52.316;10.530;2022-09-20T16:51:54;13.20;99.90
16479;DHT22;8350;52.316;10.530;2022-09-20T16:54:22;13.20;99.90
16479;DHT22;8350;52.316;10.530;2022-09-20T16:56:50;13.20;99.90
16479;DHT22;8350;52.316;10.530;2022-09-20T16:59:19;13.20;99.90
16479;DHT22;8350;52.316;10.530;2022-09-20T17:01:48;13.20;99.90
16479;DHT22;8350;52.316;10.530;2022-09-20T17:04:15;13.10;99.90
16479;DHT22;8350;52.316;10.530;2022-09-20T17:06:43;13.10;99.90
16479;DHT22;8350;52.316;10.530;2022-09-20T17:09:12;13.20;99.90